Aérodrome :
LOGIN :

S'inscrire | Disclaimer

   EN    FR    IT 

 










Légende :    VFR   VFR Marginal   IFR   IFR Intensif   IFR Très Intensif
Visi : 
Plafond : 
>= 8 km
>= 3000ft
5 à 8 km
1000 à 3000 ft
1500m à 5 km
500 à 1000 ft
800 à 1500m
200 à 500 ft
< 800m
< 200 ft
Symboles :   Orages  Brouillard  Fortes neiges  Fortes précipitations  Vent > 20 kt
SIGMETs :   Divers  Orages  Givrage  Turbulence  Onde Orograph.  Cendres Volcan.






- Altitude de l'aérodrome : 348 ft
- Code IATA : LDV


LFRJ - Landivisiau

DERNIER METAR :
  • 262030Z AUTO 09006KT 2200 0800 R25/P2000 R07/1300D BCFG BKN008 09/09 Q1018

METARs EXPIRÉS :
  • 262000Z AUTO 10007KT 2500 BR NSC 09/09 Q1018
  • 261930Z AUTO 08006KT 3500 BR SCT048 09/09 Q1018
  • 261900Z AUTO 09007KT 5000 BR FEW039 BKN047 10/09 Q1018 TEMPO 2000 BR BKN003
  • 261830Z AUTO 08008KT 5000 BR BKN049 10/09 Q1018 TEMPO 2000 BR BKN003
  • 261800Z AUTO 08007KT 5000 BR BKN049 10/10 Q1018 NOSIG
  • 261730Z AUTO 06007KT 5000 BR OVC047 11/10 Q1018 NOSIG

TAF TAF LFRJ
Valide du 26 à 18h jusqu'au 27 à 03h UTC


261700Z 2618/2703 07007KT 6000 OVC045
TEMPO 2618/2620 4000 BR
TEMPO 2620/2703 2000 BR BKN003



MET'MAP, la Météo Aéronautique d'un coup d'oeil ! - Copyright ORBIFLY Décembre 2007 - Disclaimer

ORBIFLY MET'MAP TEAM :

Programmation & Développement : Alexandra Zaïnal
Sur une idée originale de : Baudouin d'Aumeries
Assistance à la programmation : Marc-Olivier Méhu
Soutien technique & logistique : Manuel Goepfert

Contact : metmap@orbifly.com




SOURCES & CREDITS :

   NOAA